createdAt,value
2018-04-16T00:01:07.251Z,13.23
2018-04-16T00:03:34.730Z,14.37
2018-04-16T00:06:02.225Z,9.20
2018-04-16T00:08:29.695Z,14.57
2018-04-16T00:10:57.187Z,13.80
2018-04-16T00:13:24.664Z,10.40
2018-04-16T00:15:52.180Z,11.50
2018-04-16T00:18:19.650Z,13.27
2018-04-16T00:20:47.200Z,14.40
2018-04-16T00:23:14.710Z,57.00
2018-04-16T00:25:42.363Z,42.83
2018-04-16T00:28:09.857Z,14.93
2018-04-16T00:30:37.332Z,12.97
2018-04-16T00:33:10.361Z,11.70
2018-04-16T00:35:43.475Z,11.87
2018-04-16T00:38:16.697Z,12.40
2018-04-16T00:40:49.858Z,13.27
2018-04-16T00:43:23.070Z,18.77
2018-04-16T00:45:56.115Z,10.73
2018-04-16T00:48:29.351Z,9.87
2018-04-16T00:51:02.568Z,7.27
2018-04-16T00:53:47.611Z,9.33
2018-04-16T00:59:24.672Z,14.13
2018-04-16T01:01:57.854Z,11.30
2018-04-16T01:04:31.032Z,13.60
2018-04-16T01:07:04.062Z,10.40
2018-04-16T01:09:37.230Z,12.30
2018-04-16T01:12:10.397Z,9.07
2018-04-16T01:14:43.612Z,12.60
2018-04-16T01:17:16.799Z,14.97
2018-04-16T01:19:49.971Z,8.83
2018-04-16T01:22:23.213Z,13.77
2018-04-16T01:24:56.428Z,46.80
2018-04-16T01:27:29.819Z,42.27
2018-04-16T01:30:03.010Z,42.97
2018-04-16T01:32:36.402Z,44.03
2018-04-16T01:35:09.604Z,17.87
2018-04-16T01:37:42.835Z,13.20
2018-04-16T01:40:15.972Z,38.57
2018-04-16T01:42:49.170Z,10.97
2018-04-16T01:48:23.248Z,10.67
2018-04-16T01:50:56.458Z,10.40
2018-04-16T01:53:29.709Z,12.50
2018-04-16T01:56:02.743Z,10.67
2018-04-16T01:58:36.234Z,11.23
2018-04-16T02:01:09.151Z,7.00
2018-04-16T02:03:42.290Z,8.60
2018-04-16T02:09:19.423Z,9.37
2018-04-16T02:11:52.640Z,8.50
2018-04-16T02:14:25.856Z,10.03
2018-04-16T02:16:58.995Z,11.17
2018-04-16T02:19:32.239Z,13.33
2018-04-16T02:22:05.412Z,8.40
2018-04-16T02:24:38.631Z,10.47
2018-04-16T02:27:11.807Z,12.40
2018-04-16T02:29:45.053Z,12.17
2018-04-16T02:32:18.262Z,12.60
2018-04-16T02:34:51.451Z,11.90
2018-04-16T02:37:24.599Z,11.03
2018-04-16T02:39:57.975Z,51.17
2018-04-16T02:42:31.964Z,41.60
2018-04-16T02:45:04.987Z,18.93
2018-04-16T02:47:38.063Z,13.47
2018-04-16T02:50:11.126Z,7.70
2018-04-16T02:52:44.328Z,13.77
2018-04-16T02:55:17.540Z,12.17
2018-04-16T03:00:51.644Z,13.00
2018-04-16T03:03:24.777Z,9.63
2018-04-16T03:05:57.955Z,12.03
2018-04-16T03:08:31.141Z,10.33
2018-04-16T03:11:04.339Z,10.43
2018-04-16T03:13:37.379Z,11.53
2018-04-16T03:16:10.558Z,9.57
2018-04-16T03:18:43.804Z,8.87
2018-04-16T03:21:16.948Z,11.07
2018-04-16T03:23:49.936Z,7.70
2018-04-16T03:26:23.119Z,7.50
2018-04-16T03:28:56.292Z,5.07
2018-04-16T03:31:29.464Z,8.30
2018-04-16T03:34:02.644Z,9.67
2018-04-16T03:36:35.873Z,9.57
2018-04-16T03:39:08.915Z,9.07
2018-04-16T03:41:42.071Z,10.60
2018-04-16T03:47:20.794Z,8.83
2018-04-16T03:49:53.795Z,11.40
2018-04-16T03:52:26.954Z,10.17
2018-04-16T03:54:55.803Z,12.30
2018-04-16T03:57:23.343Z,14.97
2018-04-16T03:59:50.811Z,9.80
2018-04-16T04:02:18.307Z,11.37
2018-04-16T04:04:45.775Z,10.03
2018-04-16T04:07:13.268Z,11.97
2018-04-16T04:09:40.750Z,10.00
2018-04-16T04:12:08.249Z,10.43
2018-04-16T04:14:35.736Z,10.20
2018-04-16T04:17:03.247Z,14.17
2018-04-16T04:19:30.715Z,7.83
2018-04-16T04:21:58.238Z,9.27
2018-04-16T04:24:37.631Z,11.60
2018-04-16T04:27:16.946Z,9.90
2018-04-16T04:29:56.256Z,12.90
2018-04-16T04:32:23.759Z,11.73
2018-04-16T04:34:51.231Z,7.80
2018-04-16T04:37:18.719Z,9.00
2018-04-16T04:39:46.187Z,12.57
2018-04-16T04:42:13.680Z,11.63
2018-04-16T04:44:41.176Z,16.53
2018-04-16T04:47:08.659Z,11.30
2018-04-16T04:49:36.163Z,15.20
2018-04-16T04:52:03.632Z,14.00
2018-04-16T04:54:31.171Z,31.67
2018-04-16T04:56:58.789Z,30.43
2018-04-16T04:59:26.286Z,18.77
2018-04-16T05:01:53.754Z,15.70
2018-04-16T05:04:21.243Z,13.27
2018-04-16T05:06:48.719Z,11.93
2018-04-16T05:09:16.207Z,10.77
2018-04-16T05:11:43.680Z,14.47
2018-04-16T05:14:11.189Z,10.00
2018-04-16T05:16:38.659Z,9.00
2018-04-16T05:19:06.150Z,12.10
2018-04-16T05:21:33.626Z,7.33
2018-04-16T05:24:01.116Z,9.53
2018-04-16T05:26:28.598Z,13.03
2018-04-16T05:28:56.171Z,11.80
2018-04-16T05:31:23.639Z,12.13
2018-04-16T05:33:51.135Z,11.87
2018-04-16T05:36:18.620Z,15.60
2018-04-16T05:38:47.525Z,16.20
2018-04-16T05:41:15.008Z,54.10
2018-04-16T05:46:11.623Z,12.30
2018-04-16T05:48:39.156Z,12.87
2018-04-16T05:51:06.631Z,9.77
2018-04-16T05:53:40.598Z,22.70
2018-04-16T05:56:08.135Z,11.33
2018-04-16T05:58:35.649Z,15.93
2018-04-16T06:01:03.140Z,12.17
2018-04-16T06:03:30.804Z,14.10
2018-04-16T06:05:58.296Z,9.00
2018-04-16T06:08:25.762Z,7.77
2018-04-16T06:10:53.250Z,18.87
2018-04-16T06:13:20.723Z,10.30
2018-04-16T06:15:48.304Z,11.87
2018-04-16T06:18:15.776Z,12.57
2018-04-16T06:20:43.276Z,9.97
2018-04-16T06:23:10.747Z,15.03
2018-04-16T06:25:38.275Z,13.63
2018-04-16T06:28:05.751Z,19.40
2018-04-16T06:30:33.247Z,17.20
2018-04-16T06:33:00.823Z,15.43
2018-04-16T06:35:28.312Z,11.20
2018-04-16T06:37:55.778Z,11.33
2018-04-16T06:40:23.582Z,27.63
2018-04-16T06:42:51.090Z,12.23
2018-04-16T06:45:18.634Z,17.73
2018-04-16T06:47:46.124Z,13.47
2018-04-16T06:50:13.615Z,11.03
2018-04-16T06:52:41.107Z,14.50
2018-04-16T06:55:08.603Z,10.07
2018-04-16T06:57:36.132Z,18.40
2018-04-16T07:00:03.738Z,11.40
2018-04-16T07:02:31.278Z,10.93
2018-04-16T07:04:58.816Z,10.67
2018-04-16T07:07:26.303Z,7.63
2018-04-16T07:09:53.780Z,9.33
2018-04-16T07:12:21.276Z,11.37
2018-04-16T07:14:48.764Z,11.37
2018-04-16T07:17:16.292Z,13.43
2018-04-16T07:19:43.795Z,12.20
2018-04-16T07:22:11.298Z,10.80
2018-04-16T07:24:38.776Z,16.20
2018-04-16T07:27:06.290Z,15.67
2018-04-16T07:29:33.773Z,8.60
2018-04-16T07:32:01.305Z,16.73
2018-04-16T07:34:28.828Z,8.37
2018-04-16T07:36:56.356Z,11.80
2018-04-16T07:39:23.831Z,9.83
2018-04-16T07:41:51.315Z,9.80
2018-04-16T07:44:18.890Z,9.47
2018-04-16T07:46:46.409Z,6.83
2018-04-16T07:49:13.880Z,8.60
2018-04-16T07:51:41.398Z,8.00
2018-04-16T07:54:08.878Z,8.50
2018-04-16T07:56:36.372Z,8.03
2018-04-16T07:59:03.859Z,9.77
2018-04-16T08:01:34.224Z,7.43
2018-04-16T08:04:04.816Z,6.87
2018-04-16T08:06:32.598Z,6.57
2018-04-16T08:09:00.077Z,5.43
2018-04-16T08:11:27.576Z,10.73
2018-04-16T08:13:55.075Z,7.13
2018-04-16T08:16:22.601Z,10.40
2018-04-16T08:18:51.863Z,4.33
2018-04-16T08:21:21.604Z,5.40
2018-04-16T08:23:49.089Z,5.23
2018-04-16T08:26:16.581Z,5.10
2018-04-16T08:28:46.984Z,6.40
2018-04-16T08:31:14.623Z,7.60
2018-04-16T08:33:42.134Z,7.13
2018-04-16T08:36:09.607Z,10.13
2018-04-16T08:38:37.093Z,9.50
2018-04-16T08:41:04.558Z,8.70
2018-04-16T08:43:32.071Z,5.00
2018-04-16T08:45:59.548Z,5.23
2018-04-16T08:48:27.048Z,8.40
2018-04-16T08:50:54.524Z,6.27
2018-04-16T08:53:25.561Z,8.77
2018-04-16T08:55:56.707Z,8.50
2018-04-16T08:58:24.367Z,8.43
2018-04-16T09:00:51.863Z,8.03
2018-04-16T09:03:19.355Z,4.87
2018-04-16T09:05:47.827Z,5.60
2018-04-16T09:08:16.318Z,4.43
2018-04-16T09:10:43.795Z,7.13
2018-04-16T09:13:11.279Z,7.60
2018-04-16T09:15:38.810Z,6.47
2018-04-16T09:18:07.820Z,6.97
2018-04-16T09:20:35.347Z,5.43
2018-04-16T09:23:02.838Z,5.97
2018-04-16T09:25:30.316Z,4.13
2018-04-16T09:27:57.820Z,3.80
2018-04-16T09:30:25.301Z,5.43
2018-04-16T09:32:52.819Z,3.47
2018-04-16T09:35:20.347Z,5.68
2018-04-16T09:37:47.846Z,5.93
2018-04-16T09:40:15.367Z,5.95
2018-04-16T09:42:42.872Z,5.37
2018-04-16T09:45:10.420Z,5.47
2018-04-16T09:47:37.887Z,3.23
2018-04-16T09:50:05.377Z,7.50
2018-04-16T09:52:32.866Z,7.45
2018-04-16T09:55:00.367Z,2.80
2018-04-16T09:57:27.860Z,3.45
2018-04-16T09:59:55.424Z,2.30
2018-04-16T10:02:25.858Z,7.82
2018-04-16T10:04:53.363Z,3.15
2018-04-16T10:07:20.847Z,3.95
2018-04-16T10:09:48.371Z,4.72
2018-04-16T10:12:15.848Z,4.80
2018-04-16T10:14:43.363Z,5.78
2018-04-16T10:17:10.843Z,5.60
2018-04-16T10:19:38.340Z,4.57
2018-04-16T10:22:06.724Z,4.53
2018-04-16T10:24:34.223Z,3.87
2018-04-16T10:27:01.722Z,5.30
2018-04-16T10:29:29.229Z,2.53
2018-04-16T10:31:56.703Z,5.82
2018-04-16T10:34:24.248Z,4.47
2018-04-16T10:36:51.751Z,8.93
2018-04-16T10:39:19.256Z,13.98
2018-04-16T10:41:46.781Z,7.72
2018-04-16T10:44:14.457Z,38.97
2018-04-16T10:46:42.003Z,4.10
2018-04-16T10:49:09.792Z,4.47
2018-04-16T10:51:37.295Z,4.00
2018-04-16T10:54:04.800Z,4.37
2018-04-16T10:56:32.303Z,3.22
2018-04-16T10:58:59.811Z,6.30
2018-04-16T11:01:27.327Z,5.60
2018-04-16T11:03:55.254Z,35.13
2018-04-16T11:06:26.868Z,40.70
2018-04-16T11:08:54.415Z,7.47
2018-04-16T11:11:21.911Z,3.67
2018-04-16T11:13:49.423Z,3.08
2018-04-16T11:16:16.914Z,3.40
2018-04-16T11:18:44.385Z,3.72
2018-04-16T11:21:11.870Z,5.28
2018-04-16T11:23:39.339Z,1.85
2018-04-16T11:26:06.856Z,5.40
2018-04-16T11:28:34.343Z,2.62
2018-04-16T11:31:01.872Z,3.08
2018-04-16T11:33:29.367Z,3.33
2018-04-16T11:35:56.870Z,1.58
2018-04-16T11:38:24.357Z,2.00
2018-04-16T11:40:51.883Z,8.95
2018-04-16T11:43:19.396Z,3.08
2018-04-16T11:45:46.863Z,3.30
2018-04-16T11:48:14.395Z,3.62
2018-04-16T11:50:41.862Z,1.60
2018-04-16T11:53:09.371Z,5.20
2018-04-16T11:55:36.842Z,1.90
2018-04-16T11:58:04.337Z,3.58
2018-04-16T12:00:31.831Z,2.22
2018-04-16T12:02:59.382Z,5.75
2018-04-16T12:05:26.869Z,8.13
2018-04-16T12:07:54.371Z,5.90
2018-04-16T12:10:21.854Z,2.75
2018-04-16T12:12:49.426Z,2.12
2018-04-16T12:15:16.918Z,2.70
2018-04-16T12:17:44.456Z,3.10
2018-04-16T12:20:11.952Z,1.70
2018-04-16T12:22:39.478Z,2.15
2018-04-16T12:25:07.035Z,2.45
2018-04-16T12:27:34.597Z,3.97
2018-04-16T12:30:02.094Z,3.15
2018-04-16T12:32:29.620Z,4.75
2018-04-16T12:34:57.158Z,9.90
2018-04-16T12:37:24.668Z,16.87
2018-04-16T12:39:52.155Z,1.70
2018-04-16T12:42:19.732Z,2.28
2018-04-16T12:44:47.276Z,2.87
2018-04-16T12:47:14.803Z,3.28
2018-04-16T12:49:42.279Z,2.33
2018-04-16T12:52:09.979Z,2.03
2018-04-16T12:54:37.523Z,2.65
2018-04-16T12:57:05.011Z,2.78
2018-04-16T12:59:32.537Z,2.05
2018-04-16T13:02:00.043Z,3.42
2018-04-16T13:04:27.682Z,4.07
2018-04-16T13:06:55.183Z,1.50
2018-04-16T13:09:22.684Z,3.67
2018-04-16T13:11:50.223Z,2.75
2018-04-16T13:14:17.820Z,2.85
2018-04-16T13:16:45.287Z,3.33
2018-04-16T13:19:12.794Z,4.15
2018-04-16T13:21:40.395Z,2.05
2018-04-16T13:24:07.944Z,2.55
2018-04-16T13:26:35.460Z,2.05
2018-04-16T13:29:03.038Z,3.47
2018-04-16T13:31:30.537Z,2.72
2018-04-16T13:33:58.037Z,2.25
2018-04-16T13:36:25.643Z,14.82
2018-04-16T13:38:53.286Z,18.17
2018-04-16T13:41:20.921Z,13.77
2018-04-16T13:43:48.533Z,18.15
2018-04-16T13:46:16.189Z,15.93
2018-04-16T13:48:43.759Z,3.00
2018-04-16T13:51:11.465Z,2.65
2018-04-16T13:53:38.996Z,3.37
2018-04-16T13:56:06.477Z,2.58
2018-04-16T13:58:34.010Z,3.28
2018-04-16T14:01:01.866Z,4.45
2018-04-16T14:03:29.375Z,3.75
2018-04-16T14:05:56.855Z,6.70
2018-04-16T14:08:24.351Z,2.50
2018-04-16T14:10:51.831Z,4.32
2018-04-16T14:13:19.297Z,3.42
2018-04-16T14:15:46.803Z,3.30
2018-04-16T14:18:14.315Z,6.05
2018-04-16T14:20:41.875Z,2.42
2018-04-16T14:23:09.436Z,5.30
2018-04-16T14:25:37.095Z,2.62
2018-04-16T14:28:04.590Z,4.15
2018-04-16T14:30:32.102Z,5.03
2018-04-16T14:32:59.590Z,6.55
2018-04-16T14:35:27.192Z,23.52
2018-04-16T14:37:54.763Z,8.52
2018-04-16T14:40:22.504Z,7.97
2018-04-16T14:42:49.972Z,2.58
2018-04-16T14:45:17.469Z,4.90
2018-04-16T14:47:44.943Z,4.10
2018-04-16T14:50:12.453Z,8.55
2018-04-16T14:52:39.934Z,3.47
2018-04-16T14:55:07.436Z,3.03
2018-04-16T14:57:34.963Z,4.07
2018-04-16T15:00:02.463Z,3.45
2018-04-16T15:02:29.980Z,5.32
2018-04-16T15:04:57.572Z,5.28
2018-04-16T15:07:25.055Z,4.22
2018-04-16T15:09:52.563Z,3.47
2018-04-16T15:12:20.047Z,3.40
2018-04-16T15:14:47.556Z,4.75
2018-04-16T15:17:15.023Z,6.37
2018-04-16T15:19:42.564Z,5.15
2018-04-16T15:22:10.031Z,3.13
2018-04-16T15:24:37.503Z,5.77
2018-04-16T15:27:04.995Z,4.15
2018-04-16T15:29:32.481Z,2.17
2018-04-16T15:31:59.989Z,2.80
2018-04-16T15:34:27.488Z,5.87
2018-04-16T15:36:55.032Z,18.27
2018-04-16T15:39:22.570Z,6.43
2018-04-16T15:41:50.138Z,18.33
2018-04-16T15:44:17.640Z,11.37
2018-04-16T15:46:45.206Z,17.83
2018-04-16T15:49:12.721Z,18.43
2018-04-16T15:51:40.327Z,17.13
2018-04-16T15:54:07.823Z,7.13
2018-04-16T15:56:35.377Z,3.23
2018-04-16T15:59:02.843Z,2.80
2018-04-16T16:01:30.444Z,6.67
2018-04-16T16:03:57.919Z,3.77
2018-04-16T16:06:25.402Z,2.60
2018-04-16T16:08:52.904Z,2.83
2018-04-16T16:11:20.404Z,3.57
2018-04-16T16:13:49.796Z,2.00
2018-04-16T16:16:17.455Z,4.20
2018-04-16T16:18:44.942Z,2.87
2018-04-16T16:21:12.489Z,4.17
2018-04-16T16:23:39.996Z,3.27
2018-04-16T16:26:07.471Z,5.93
2018-04-16T16:28:35.015Z,5.07
2018-04-16T16:31:02.488Z,14.10
2018-04-16T16:33:29.975Z,2.00
2018-04-16T16:35:57.459Z,3.03
2018-04-16T16:38:24.992Z,6.30
2018-04-16T16:40:52.531Z,4.37
2018-04-16T16:43:20.012Z,6.80
2018-04-16T16:45:47.559Z,3.45
2018-04-16T16:48:15.056Z,3.65
2018-04-16T16:50:42.615Z,2.20
2018-04-16T16:53:10.120Z,3.78
2018-04-16T16:55:37.586Z,3.87
2018-04-16T16:58:05.079Z,2.37
2018-04-16T17:00:32.547Z,2.55
2018-04-16T17:03:00.107Z,3.55
2018-04-16T17:05:27.575Z,5.78
2018-04-16T17:07:55.104Z,3.97
2018-04-16T17:10:22.595Z,4.85
2018-04-16T17:12:50.112Z,2.90
2018-04-16T17:15:17.584Z,5.27
2018-04-16T17:17:45.088Z,10.77
2018-04-16T17:20:12.566Z,6.57
2018-04-16T17:22:40.066Z,4.27
2018-04-16T17:25:07.546Z,3.23
2018-04-16T17:27:35.135Z,5.73
2018-04-16T17:30:02.599Z,3.23
2018-04-16T17:32:30.081Z,2.80
2018-04-16T17:34:57.575Z,7.57
2018-04-16T17:37:25.063Z,3.73
2018-04-16T17:39:52.660Z,5.07
2018-04-16T17:42:20.183Z,8.03
2018-04-16T17:44:47.696Z,5.07
2018-04-16T17:47:16.681Z,4.20
2018-04-16T17:49:44.284Z,4.70
2018-04-16T17:52:11.752Z,4.77
2018-04-16T17:54:39.296Z,5.27
2018-04-16T17:57:06.777Z,4.40
2018-04-16T17:59:34.268Z,3.63
2018-04-16T18:02:01.900Z,9.13
2018-04-16T18:04:29.399Z,5.60
2018-04-16T18:06:56.903Z,3.37
2018-04-16T18:09:24.783Z,5.87
2018-04-16T18:11:52.247Z,5.60
2018-04-16T18:14:19.764Z,3.53
2018-04-16T18:16:47.244Z,2.90
2018-04-16T18:19:14.943Z,6.03
2018-04-16T18:21:42.420Z,2.30
2018-04-16T18:24:09.939Z,5.10
2018-04-16T18:26:37.414Z,5.73
2018-04-16T18:29:04.908Z,3.73
2018-04-16T18:31:32.716Z,3.37
2018-04-16T18:34:00.244Z,4.30
2018-04-16T18:36:27.775Z,16.37
2018-04-16T18:38:55.264Z,6.37
2018-04-16T18:41:22.792Z,2.57
2018-04-16T18:43:50.396Z,4.87
2018-04-16T18:46:17.892Z,5.80
2018-04-16T18:48:45.354Z,3.00
2018-04-16T18:51:12.950Z,5.13
2018-04-16T18:53:40.427Z,4.83
2018-04-16T18:56:07.927Z,4.27
2018-04-16T18:58:35.410Z,6.03
2018-04-16T19:01:02.907Z,3.63
2018-04-16T19:03:30.414Z,3.47
2018-04-16T19:05:57.915Z,2.50
2018-04-16T19:08:25.464Z,6.33
2018-04-16T19:10:52.952Z,3.20
2018-04-16T19:13:20.436Z,2.47
2018-04-16T19:15:48.001Z,2.80
2018-04-16T19:18:15.439Z,2.97
2018-04-16T19:20:48.648Z,2.63
2018-04-16T19:23:16.137Z,4.13
2018-04-16T19:25:43.656Z,3.73
2018-04-16T19:28:18.559Z,3.80
2018-04-16T19:30:46.056Z,2.03
2018-04-16T19:33:19.283Z,3.23
2018-04-16T19:35:46.951Z,2.40
2018-04-16T19:38:14.444Z,4.27
2018-04-16T19:40:42.094Z,6.07
2018-04-16T19:43:09.641Z,3.73
2018-04-16T19:45:37.063Z,5.73
2018-04-16T19:48:04.571Z,2.57
2018-04-16T19:50:32.039Z,2.90
2018-04-16T19:52:59.547Z,2.33
2018-04-16T19:55:27.012Z,6.00
2018-04-16T19:58:00.253Z,5.47
2018-04-16T20:00:27.719Z,2.93
2018-04-16T20:03:00.900Z,2.33
2018-04-16T20:05:28.402Z,4.30
2018-04-16T20:07:56.138Z,2.90
2018-04-16T20:10:23.607Z,7.40
2018-04-16T20:12:51.277Z,1.97
2018-04-16T20:15:18.751Z,2.40
2018-04-16T20:17:46.288Z,4.50
2018-04-16T20:20:13.766Z,4.53
2018-04-16T20:22:41.262Z,3.50
2018-04-16T20:25:08.840Z,4.40
2018-04-16T20:27:36.455Z,7.00
2018-04-16T20:30:04.010Z,3.63
2018-04-16T20:32:31.583Z,2.90
2018-04-16T20:34:59.068Z,2.53
2018-04-16T20:37:26.560Z,3.97
2018-04-16T20:39:54.030Z,2.40
2018-04-16T20:42:21.523Z,2.67
2018-04-16T20:44:49.119Z,1.53
2018-04-16T20:47:16.673Z,2.83
2018-04-16T20:49:44.143Z,2.80
2018-04-16T20:52:11.653Z,4.73
2018-04-16T20:54:39.151Z,3.40
2018-04-16T20:57:06.645Z,3.20
2018-04-16T20:59:34.175Z,3.40
2018-04-16T21:02:01.649Z,3.63
2018-04-16T21:04:29.112Z,4.20
2018-04-16T21:06:56.631Z,3.63
2018-04-16T21:09:24.091Z,5.43
2018-04-16T21:11:51.591Z,4.30
2018-04-16T21:14:19.147Z,2.63
2018-04-16T21:16:46.616Z,6.97
2018-04-16T21:19:14.151Z,6.83
2018-04-16T21:21:41.648Z,4.20
2018-04-16T21:24:09.207Z,4.97
2018-04-16T21:26:36.676Z,4.90
2018-04-16T21:29:04.184Z,4.13
2018-04-16T21:31:31.651Z,6.60
2018-04-16T21:33:59.149Z,5.97
2018-04-16T21:36:26.651Z,4.60
2018-04-16T21:38:54.145Z,4.33
2018-04-16T21:41:21.621Z,5.80
2018-04-16T21:43:49.243Z,7.23
2018-04-16T21:46:16.721Z,7.10
2018-04-16T21:48:44.214Z,5.43
2018-04-16T21:51:11.695Z,6.20
2018-04-16T21:53:40.191Z,7.27
2018-04-16T21:56:07.656Z,7.87
2018-04-16T21:58:35.248Z,9.73
2018-04-16T22:01:02.767Z,7.27
2018-04-16T22:03:30.325Z,24.70
2018-04-16T22:05:57.835Z,7.73
2018-04-16T22:08:25.346Z,5.30
2018-04-16T22:10:52.820Z,7.20
2018-04-16T22:13:20.336Z,21.23
2018-04-16T22:15:47.831Z,4.40
2018-04-16T22:18:15.299Z,6.03
2018-04-16T22:20:42.791Z,6.37
2018-04-16T22:23:10.265Z,5.90
2018-04-16T22:25:37.874Z,30.40
2018-04-16T22:28:05.386Z,28.53
2018-04-16T22:30:32.983Z,32.57
2018-04-16T22:33:00.643Z,36.23
2018-04-16T22:35:28.319Z,30.50
2018-04-16T22:37:56.277Z,33.37
2018-04-16T22:40:23.915Z,24.77
2018-04-16T22:42:51.508Z,28.27
2018-04-16T22:45:19.061Z,5.73
2018-04-16T22:47:46.548Z,8.53
2018-04-16T22:50:14.045Z,5.07
2018-04-16T22:52:41.516Z,5.80
2018-04-16T22:55:09.023Z,7.07
2018-04-16T22:57:36.496Z,8.80
2018-04-16T23:00:04.000Z,6.83
2018-04-16T23:02:31.471Z,5.83
2018-04-16T23:04:58.968Z,9.53
2018-04-16T23:07:26.451Z,8.83
2018-04-16T23:09:53.951Z,7.70
2018-04-16T23:12:21.543Z,6.77
2018-04-16T23:14:49.061Z,9.53
2018-04-16T23:17:16.523Z,7.10
2018-04-16T23:19:44.016Z,5.83
2018-04-16T23:22:11.500Z,6.80
2018-04-16T23:24:38.985Z,27.27
2018-04-16T23:27:06.512Z,26.93
2018-04-16T23:29:33.989Z,12.07
2018-04-16T23:32:01.486Z,7.03
2018-04-16T23:34:28.952Z,6.87
2018-04-16T23:36:56.524Z,5.17
2018-04-16T23:39:23.976Z,6.47
2018-04-16T23:41:51.463Z,5.40
2018-04-16T23:44:18.935Z,5.00
2018-04-16T23:46:46.534Z,6.87
2018-04-16T23:49:13.994Z,6.83
2018-04-16T23:51:41.490Z,6.53
2018-04-16T23:54:08.961Z,6.20
2018-04-16T23:56:36.468Z,16.20
2018-04-16T23:59:03.941Z,20.77
